createdAt,value
2019-05-09T00:00:29.812Z,930.83
2019-05-09T00:01:29.877Z,930.81
2019-05-09T00:02:29.897Z,930.86
2019-05-09T00:03:29.975Z,930.79
2019-05-09T00:04:30.007Z,930.83
2019-05-09T00:05:30.031Z,930.86
2019-05-09T00:06:30.092Z,930.97
2019-05-09T00:07:30.125Z,930.90
2019-05-09T00:08:30.177Z,930.97
2019-05-09T00:09:30.220Z,930.94
2019-05-09T00:10:39.420Z,930.96
2019-05-09T00:11:30.298Z,930.90
2019-05-09T00:12:30.349Z,930.92
2019-05-09T00:13:30.374Z,930.93
2019-05-09T00:14:30.437Z,930.90
2019-05-09T00:15:30.468Z,930.84
2019-05-09T00:16:30.524Z,930.92
2019-05-09T00:17:30.568Z,930.88
2019-05-09T00:18:30.603Z,930.96
2019-05-09T00:19:30.686Z,930.94
2019-05-09T00:20:30.693Z,931.00
2019-05-09T00:21:33.116Z,930.96
2019-05-09T00:22:30.770Z,931.03
2019-05-09T00:23:33.098Z,931.04
2019-05-09T00:24:33.059Z,930.95
2019-05-09T00:25:30.945Z,930.98
2019-05-09T00:26:30.966Z,930.98
2019-05-09T00:27:33.097Z,931.01
2019-05-09T00:28:33.770Z,931.00
2019-05-09T00:29:33.324Z,931.00
2019-05-09T00:30:33.176Z,930.94
2019-05-09T00:31:31.163Z,930.97
2019-05-09T00:32:31.193Z,930.95
2019-05-09T00:33:31.258Z,931.01
2019-05-09T00:34:31.304Z,930.93
2019-05-09T00:35:33.663Z,930.92
2019-05-09T00:36:33.430Z,930.89
2019-05-09T00:37:32.956Z,930.94
2019-05-09T00:38:33.349Z,930.94
2019-05-09T00:39:31.518Z,930.96
2019-05-09T00:40:34.005Z,930.98
2019-05-09T00:41:33.033Z,930.93
2019-05-09T00:42:33.390Z,930.96
2019-05-09T00:43:34.056Z,930.94
2019-05-09T00:44:33.783Z,930.99
2019-05-09T00:45:33.306Z,931.03
2019-05-09T00:46:33.975Z,931.09
2019-05-09T00:47:32.994Z,931.06
2019-05-09T00:48:33.658Z,931.07
2019-05-09T00:49:34.022Z,931.05
2019-05-09T00:50:34.014Z,931.08
2019-05-09T00:51:33.896Z,931.11
2019-05-09T00:52:33.921Z,930.97
2019-05-09T00:53:33.950Z,931.04
2019-05-09T00:54:33.497Z,931.11
2019-05-09T00:55:33.287Z,931.06
2019-05-09T00:56:33.156Z,931.00
2019-05-09T00:57:33.447Z,931.00
2019-05-09T00:58:33.370Z,930.98
2019-05-09T00:59:33.241Z,930.99
2019-05-09T01:00:33.366Z,931.02
2019-05-09T01:01:34.212Z,931.05
2019-05-09T01:02:34.064Z,931.01
2019-05-09T01:03:33.999Z,931.06
2019-05-09T01:04:33.334Z,931.06
2019-05-09T01:05:34.129Z,931.01
2019-05-09T01:06:34.007Z,931.04
2019-05-09T01:07:33.619Z,931.03
2019-05-09T01:08:33.535Z,930.98
2019-05-09T01:09:33.483Z,931.01
2019-05-09T01:10:34.259Z,930.97
2019-05-09T01:11:33.380Z,930.95
2019-05-09T01:12:34.122Z,930.97
2019-05-09T01:13:34.062Z,931.01
2019-05-09T01:14:33.903Z,931.00
2019-05-09T01:15:33.572Z,931.04
2019-05-09T01:16:33.625Z,931.02
2019-05-09T01:17:33.561Z,931.08
2019-05-09T01:18:33.243Z,931.16
2019-05-09T01:19:33.890Z,931.07
2019-05-09T01:20:33.425Z,931.12
2019-05-09T01:21:33.543Z,931.08
2019-05-09T01:22:33.378Z,931.15
2019-05-09T01:23:34.277Z,931.09
2019-05-09T01:24:33.927Z,931.16
2019-05-09T01:25:33.672Z,931.12
2019-05-09T01:26:33.603Z,931.16
2019-05-09T01:27:34.036Z,931.13
2019-05-09T01:28:34.089Z,931.14
2019-05-09T01:29:33.906Z,931.16
2019-05-09T01:30:33.805Z,931.19
2019-05-09T01:31:33.757Z,931.22
2019-05-09T01:32:34.384Z,931.22
2019-05-09T01:33:33.813Z,931.21
2019-05-09T01:34:33.883Z,931.22
2019-05-09T01:35:34.125Z,931.39
2019-05-09T01:36:33.962Z,931.20
2019-05-09T01:37:34.288Z,931.29
2019-05-09T01:38:34.145Z,931.19
2019-05-09T01:39:34.106Z,931.21
2019-05-09T01:40:34.155Z,931.24
2019-05-09T01:41:34.216Z,931.23
2019-05-09T01:42:34.243Z,931.21
2019-05-09T01:43:34.275Z,931.26
2019-05-09T01:44:34.318Z,931.30
2019-05-09T01:45:34.406Z,931.23
2019-05-09T01:46:34.393Z,931.22
2019-05-09T01:47:34.451Z,931.26
2019-05-09T01:48:34.462Z,931.27
2019-05-09T01:49:34.534Z,931.27
2019-05-09T01:50:34.569Z,931.31
2019-05-09T01:51:34.615Z,931.32
2019-05-09T01:52:34.638Z,931.25
2019-05-09T01:53:34.697Z,931.30
2019-05-09T01:54:34.753Z,931.28
2019-05-09T01:55:34.783Z,931.22
2019-05-09T01:56:34.813Z,931.22
2019-05-09T01:57:34.881Z,931.22
2019-05-09T01:58:34.921Z,931.22
2019-05-09T01:59:34.971Z,931.22
2019-05-09T02:00:35.005Z,931.22
2019-05-09T02:01:35.071Z,931.22
2019-05-09T02:02:35.098Z,931.30
2019-05-09T02:03:35.113Z,931.24
2019-05-09T02:04:35.171Z,931.23
2019-05-09T02:05:35.234Z,931.20
2019-05-09T02:06:35.267Z,931.14
2019-05-09T02:07:35.317Z,931.13
2019-05-09T02:08:35.326Z,931.16
2019-05-09T02:09:35.381Z,931.17
2019-05-09T02:10:35.435Z,931.14
2019-05-09T02:11:42.472Z,931.07
2019-05-09T02:12:35.535Z,931.17
2019-05-09T02:13:35.573Z,931.13
2019-05-09T02:14:35.586Z,931.08
2019-05-09T02:15:35.653Z,931.12
2019-05-09T02:16:35.685Z,931.07
2019-05-09T02:17:35.715Z,931.06
2019-05-09T02:18:35.763Z,931.07
2019-05-09T02:19:35.790Z,931.07
2019-05-09T02:20:35.860Z,931.06
2019-05-09T02:21:35.916Z,931.05
2019-05-09T02:22:35.990Z,931.06
2019-05-09T02:23:35.975Z,931.08
2019-05-09T02:24:36.035Z,931.12
2019-05-09T02:25:36.050Z,931.08
2019-05-09T02:26:36.125Z,931.13
2019-05-09T02:27:36.146Z,931.09
2019-05-09T02:28:36.211Z,931.10
2019-05-09T02:29:36.258Z,931.01
2019-05-09T02:30:36.308Z,931.05
2019-05-09T02:31:36.331Z,930.98
2019-05-09T02:32:36.382Z,931.02
2019-05-09T02:33:36.424Z,930.97
2019-05-09T02:34:36.450Z,931.04
2019-05-09T02:35:47.919Z,930.98
2019-05-09T02:36:38.524Z,930.99
2019-05-09T02:37:38.858Z,931.02
2019-05-09T02:38:39.205Z,931.04
2019-05-09T02:39:39.328Z,931.03
2019-05-09T02:40:39.367Z,931.00
2019-05-09T02:41:39.084Z,931.05
2019-05-09T02:42:39.631Z,931.08
2019-05-09T02:43:38.875Z,931.05
2019-05-09T02:44:39.476Z,931.10
2019-05-09T02:45:38.974Z,931.03
2019-05-09T02:46:38.552Z,931.07
2019-05-09T02:47:38.480Z,931.06
2019-05-09T02:48:38.647Z,931.05
2019-05-09T02:49:39.019Z,930.97
2019-05-09T02:50:38.513Z,931.00
2019-05-09T02:51:38.748Z,930.98
2019-05-09T02:52:39.658Z,930.97
2019-05-09T02:53:39.526Z,931.00
2019-05-09T02:54:39.259Z,930.93
2019-05-09T02:55:38.762Z,930.92
2019-05-09T02:56:38.587Z,930.84
2019-05-09T02:57:37.558Z,930.84
2019-05-09T02:58:38.819Z,930.83
2019-05-09T02:59:38.667Z,930.82
2019-05-09T03:00:39.686Z,930.82
2019-05-09T03:01:39.148Z,930.86
2019-05-09T03:02:38.390Z,930.87
2019-05-09T03:03:39.280Z,930.90
2019-05-09T03:04:39.067Z,930.91
2019-05-09T03:05:38.490Z,930.92
2019-05-09T03:06:38.964Z,930.88
2019-05-09T03:07:39.388Z,930.87
2019-05-09T03:08:38.391Z,930.83
2019-05-09T03:09:38.846Z,930.82
2019-05-09T03:10:38.131Z,930.77
2019-05-09T03:11:38.961Z,930.83
2019-05-09T03:12:39.907Z,930.80
2019-05-09T03:13:39.464Z,930.86
2019-05-09T03:14:38.562Z,930.83
2019-05-09T03:15:39.423Z,930.87
2019-05-09T03:16:39.681Z,930.90
2019-05-09T03:17:38.707Z,930.91
2019-05-09T03:18:38.986Z,930.87
2019-05-09T03:19:38.784Z,930.91
2019-05-09T03:20:39.372Z,930.98
2019-05-09T03:21:39.187Z,930.90
2019-05-09T03:22:39.497Z,930.96
2019-05-09T03:23:39.097Z,930.96
2019-05-09T03:24:39.553Z,930.94
2019-05-09T03:25:40.859Z,931.05
2019-05-09T03:26:38.782Z,930.95
2019-05-09T03:27:39.200Z,930.96
2019-05-09T03:28:39.018Z,930.93
2019-05-09T03:29:39.674Z,930.91
2019-05-09T03:30:39.904Z,930.93
2019-05-09T03:31:39.569Z,930.81
2019-05-09T03:32:38.979Z,930.82
2019-05-09T03:33:40.482Z,930.82
2019-05-09T03:34:39.020Z,930.84
2019-05-09T03:35:39.072Z,930.80
2019-05-09T03:36:39.124Z,930.85
2019-05-09T03:37:39.168Z,930.83
2019-05-09T03:38:39.200Z,930.88
2019-05-09T03:39:39.253Z,930.87
2019-05-09T03:40:39.293Z,930.86
2019-05-09T03:41:39.661Z,930.99
2019-05-09T03:42:43.678Z,930.85
2019-05-09T03:43:39.419Z,930.89
2019-05-09T03:44:39.511Z,930.86
2019-05-09T03:45:39.516Z,930.89
2019-05-09T03:46:39.545Z,930.89
2019-05-09T03:47:39.590Z,930.81
2019-05-09T03:48:39.660Z,930.78
2019-05-09T03:49:39.661Z,930.74
2019-05-09T03:50:39.702Z,930.75
2019-05-09T03:51:39.766Z,930.81
2019-05-09T03:52:39.776Z,930.80
2019-05-09T03:53:39.834Z,930.84
2019-05-09T03:54:39.905Z,930.80
2019-05-09T03:55:39.932Z,930.79
2019-05-09T03:56:39.965Z,930.80
2019-05-09T03:57:40.013Z,930.80
2019-05-09T03:58:40.040Z,930.82
2019-05-09T03:59:40.078Z,930.79
2019-05-09T04:00:40.142Z,930.79
2019-05-09T04:01:40.301Z,930.77
2019-05-09T04:02:40.228Z,930.80
2019-05-09T04:03:40.324Z,930.79
2019-05-09T04:04:40.376Z,930.79
2019-05-09T04:05:54.454Z,930.79
2019-05-09T04:06:40.542Z,930.81
2019-05-09T04:07:40.485Z,930.81
2019-05-09T04:08:40.534Z,930.79
2019-05-09T04:09:40.588Z,930.83
2019-05-09T04:10:40.621Z,930.84
2019-05-09T04:11:40.618Z,930.82
2019-05-09T04:12:52.805Z,930.85
2019-05-09T04:13:40.712Z,930.88
2019-05-09T04:14:40.730Z,930.87
2019-05-09T04:15:40.781Z,930.91
2019-05-09T04:16:40.901Z,930.89
2019-05-09T04:17:40.927Z,930.86
2019-05-09T04:18:40.960Z,930.87
2019-05-09T04:19:41.044Z,930.85
2019-05-09T04:20:41.070Z,930.82
2019-05-09T04:21:41.079Z,930.76
2019-05-09T04:22:41.095Z,930.73
2019-05-09T04:23:41.126Z,930.71
2019-05-09T04:24:41.174Z,930.66
2019-05-09T04:25:41.267Z,930.65
2019-05-09T04:26:41.304Z,930.69
2019-05-09T04:27:41.348Z,930.59
2019-05-09T04:28:41.386Z,930.58
2019-05-09T04:29:41.439Z,930.57
2019-05-09T04:30:41.493Z,930.54
2019-05-09T04:31:41.512Z,930.56
2019-05-09T04:32:41.660Z,930.48
2019-05-09T04:33:41.614Z,930.54
2019-05-09T04:34:41.653Z,930.46
2019-05-09T04:35:41.634Z,930.52
2019-05-09T04:36:41.743Z,930.47
2019-05-09T04:37:41.834Z,930.46
2019-05-09T04:38:41.973Z,930.51
2019-05-09T04:39:41.869Z,930.44
2019-05-09T04:40:45.024Z,930.39
2019-05-09T04:41:42.007Z,930.41
2019-05-09T04:42:44.420Z,930.32
2019-05-09T04:43:42.085Z,930.36
2019-05-09T04:44:42.075Z,930.28
2019-05-09T04:45:42.109Z,930.24
2019-05-09T04:46:42.158Z,930.24
2019-05-09T04:47:43.536Z,930.24
2019-05-09T04:48:42.250Z,930.23
2019-05-09T04:49:45.273Z,930.20
2019-05-09T04:50:42.291Z,930.17
2019-05-09T04:51:42.317Z,930.13
2019-05-09T04:52:42.368Z,930.16
2019-05-09T04:53:42.390Z,930.16
2019-05-09T04:54:42.435Z,930.21
2019-05-09T04:55:42.487Z,930.17
2019-05-09T04:56:42.538Z,930.22
2019-05-09T04:57:42.575Z,930.14
2019-05-09T04:58:42.643Z,930.22
2019-05-09T04:59:42.681Z,930.20
2019-05-09T05:00:42.715Z,930.21
2019-05-09T05:01:42.754Z,930.21
2019-05-09T05:02:42.814Z,930.21
2019-05-09T05:03:42.818Z,930.22
2019-05-09T05:04:42.887Z,930.21
2019-05-09T05:05:42.918Z,930.26
2019-05-09T05:06:42.956Z,930.22
2019-05-09T05:07:42.990Z,930.20
2019-05-09T05:08:43.036Z,930.25
2019-05-09T05:09:43.073Z,930.19
2019-05-09T05:10:43.104Z,930.12
2019-05-09T05:11:46.394Z,930.18
2019-05-09T05:12:43.225Z,930.22
2019-05-09T05:13:43.270Z,930.17
2019-05-09T05:14:43.316Z,930.15
2019-05-09T05:15:43.352Z,930.14
2019-05-09T05:16:43.403Z,930.09
2019-05-09T05:17:43.436Z,930.10
2019-05-09T05:18:43.474Z,930.05
2019-05-09T05:19:43.513Z,930.05
2019-05-09T05:20:43.551Z,930.05
2019-05-09T05:21:43.624Z,930.00
2019-05-09T05:22:43.644Z,929.98
2019-05-09T05:23:43.703Z,930.00
2019-05-09T05:24:43.718Z,930.00
2019-05-09T05:25:43.762Z,929.93
2019-05-09T05:26:43.813Z,929.93
2019-05-09T05:27:43.861Z,929.91
2019-05-09T05:28:43.896Z,929.88
2019-05-09T05:29:43.956Z,929.84
2019-05-09T05:30:43.988Z,929.90
2019-05-09T05:31:44.039Z,929.88
2019-05-09T05:32:44.067Z,929.95
2019-05-09T05:33:44.140Z,929.90
2019-05-09T05:34:44.154Z,929.96
2019-05-09T05:35:44.191Z,929.95
2019-05-09T05:36:44.249Z,929.91
2019-05-09T05:37:44.274Z,929.90
2019-05-09T05:38:44.329Z,929.90
2019-05-09T05:39:44.366Z,929.86
2019-05-09T05:40:46.562Z,929.85
2019-05-09T05:41:44.471Z,929.81
2019-05-09T05:42:44.515Z,929.78
2019-05-09T05:43:44.927Z,929.80
2019-05-09T05:44:44.580Z,929.76
2019-05-09T05:45:44.611Z,929.73
2019-05-09T05:46:49.912Z,929.71
2019-05-09T05:47:44.734Z,929.70
2019-05-09T05:48:44.769Z,929.64
2019-05-09T05:49:44.820Z,929.67
2019-05-09T05:50:44.854Z,929.65
2019-05-09T05:51:44.901Z,929.60
2019-05-09T05:52:44.930Z,929.60
2019-05-09T05:53:44.983Z,929.57
2019-05-09T05:54:45.030Z,929.53
2019-05-09T05:55:45.047Z,929.50
2019-05-09T05:56:47.381Z,929.52
2019-05-09T05:57:47.673Z,929.46
2019-05-09T05:58:45.190Z,929.44
2019-05-09T05:59:45.223Z,929.45
2019-05-09T06:00:45.276Z,929.39
2019-05-09T06:01:47.545Z,929.38
2019-05-09T06:02:47.684Z,929.39
2019-05-09T06:03:45.400Z,929.35
2019-05-09T06:04:45.460Z,929.33
2019-05-09T06:05:49.291Z,929.34
2019-05-09T06:06:47.827Z,929.35
2019-05-09T06:07:45.588Z,929.37
2019-05-09T06:08:45.627Z,929.33
2019-05-09T06:09:47.692Z,929.33
2019-05-09T06:10:48.183Z,929.31
2019-05-09T06:11:48.244Z,929.28
2019-05-09T06:12:48.032Z,929.24
2019-05-09T06:13:54.523Z,929.27
2019-05-09T06:14:48.005Z,929.23
2019-05-09T06:15:48.042Z,929.20
2019-05-09T06:16:48.331Z,929.25
2019-05-09T06:17:48.221Z,929.17
2019-05-09T06:18:47.536Z,929.21
2019-05-09T06:19:48.193Z,929.20
2019-05-09T06:20:48.639Z,929.24
2019-05-09T06:21:48.526Z,929.26
2019-05-09T06:22:47.723Z,929.22
2019-05-09T06:23:48.201Z,929.22
2019-05-09T06:24:47.860Z,929.25
2019-05-09T06:25:48.464Z,929.25
2019-05-09T06:26:47.840Z,929.21
2019-05-09T06:27:48.239Z,929.20
2019-05-09T06:28:48.118Z,929.22
2019-05-09T06:29:47.735Z,929.23
2019-05-09T06:30:47.703Z,929.23
2019-05-09T06:31:48.418Z,929.23
2019-05-09T06:32:47.722Z,929.31
2019-05-09T06:33:52.583Z,929.26
2019-05-09T06:34:47.785Z,929.24
2019-05-09T06:35:48.095Z,929.26
2019-05-09T06:36:48.975Z,929.28
2019-05-09T06:37:47.800Z,929.23
2019-05-09T06:38:48.779Z,929.26
2019-05-09T06:39:48.611Z,929.27
2019-05-09T06:40:47.596Z,929.21
2019-05-09T06:41:48.309Z,929.22
2019-05-09T06:42:48.890Z,929.24
2019-05-09T06:43:49.617Z,929.19
2019-05-09T06:44:47.944Z,929.16
2019-05-09T06:45:48.634Z,929.25
2019-05-09T06:46:48.250Z,929.18
2019-05-09T06:47:48.654Z,929.21
2019-05-09T06:48:47.904Z,929.26
2019-05-09T06:49:49.852Z,929.24
2019-05-09T06:50:48.364Z,929.27
2019-05-09T06:51:47.684Z,929.31
2019-05-09T06:52:47.999Z,929.28
2019-05-09T06:53:48.817Z,929.25
2019-05-09T06:54:48.593Z,929.25
2019-05-09T06:55:47.733Z,929.22
2019-05-09T06:56:47.678Z,929.25
2019-05-09T06:57:48.910Z,929.29
2019-05-09T06:58:48.189Z,929.27
2019-05-09T06:59:48.743Z,929.31
2019-05-09T07:00:48.944Z,929.36
2019-05-09T07:01:48.227Z,929.31
2019-05-09T07:02:48.078Z,929.32
2019-05-09T07:03:48.144Z,929.26
2019-05-09T07:04:48.010Z,929.27
2019-05-09T07:05:48.147Z,929.31
2019-05-09T07:06:48.371Z,929.30
2019-05-09T07:07:48.271Z,929.29
2019-05-09T07:08:48.177Z,929.22
2019-05-09T07:09:48.192Z,929.29
2019-05-09T07:10:48.433Z,929.28
2019-05-09T07:11:48.776Z,929.33
2019-05-09T07:12:48.721Z,929.29
2019-05-09T07:13:48.369Z,929.30
2019-05-09T07:14:48.882Z,929.27
2019-05-09T07:15:48.483Z,929.26
2019-05-09T07:16:48.529Z,929.28
2019-05-09T07:17:48.561Z,929.31
2019-05-09T07:18:48.658Z,929.31
2019-05-09T07:19:49.133Z,929.29
2019-05-09T07:20:48.675Z,929.28
2019-05-09T07:21:48.727Z,929.24
2019-05-09T07:22:48.761Z,929.28
2019-05-09T07:23:48.791Z,929.27
2019-05-09T07:24:48.870Z,929.23
2019-05-09T07:25:48.894Z,929.28
2019-05-09T07:26:48.929Z,929.26
2019-05-09T07:27:48.967Z,929.19
2019-05-09T07:28:49.043Z,929.28
2019-05-09T07:29:49.065Z,929.24
2019-05-09T07:30:49.121Z,929.21
2019-05-09T07:31:49.149Z,929.24
2019-05-09T07:32:49.201Z,929.29
2019-05-09T07:33:49.287Z,929.25
2019-05-09T07:34:49.285Z,929.27
2019-05-09T07:35:49.335Z,929.24
2019-05-09T07:36:49.384Z,929.19
2019-05-09T07:37:49.408Z,929.21
2019-05-09T07:38:49.444Z,929.21
2019-05-09T07:39:49.498Z,929.21
2019-05-09T07:40:49.534Z,929.22
2019-05-09T07:41:49.574Z,929.25
2019-05-09T07:42:49.628Z,929.22
2019-05-09T07:43:49.675Z,929.16
2019-05-09T07:44:52.433Z,929.22
2019-05-09T07:45:53.000Z,929.26
2019-05-09T07:46:49.798Z,929.27
2019-05-09T07:47:49.846Z,929.24
2019-05-09T07:48:49.888Z,929.28
2019-05-09T07:49:49.932Z,929.27
2019-05-09T07:50:49.953Z,929.25
2019-05-09T07:51:49.998Z,929.29
2019-05-09T07:52:50.052Z,929.33
2019-05-09T07:53:50.110Z,929.27
2019-05-09T07:54:50.150Z,929.27
2019-05-09T07:55:50.211Z,929.27
2019-05-09T07:56:50.237Z,929.27
2019-05-09T07:57:55.263Z,929.25
2019-05-09T07:58:50.323Z,929.24
2019-05-09T07:59:50.358Z,929.27
2019-05-09T08:00:50.386Z,929.27
2019-05-09T08:01:50.459Z,929.28
2019-05-09T08:02:50.482Z,929.30
2019-05-09T08:03:50.560Z,929.31
2019-05-09T08:04:50.560Z,929.34
2019-05-09T08:05:50.655Z,929.35
2019-05-09T08:06:50.671Z,929.35
2019-05-09T08:07:50.679Z,929.34
2019-05-09T08:08:50.744Z,929.33
2019-05-09T08:09:50.784Z,929.28
2019-05-09T08:10:50.820Z,929.30
2019-05-09T08:11:50.875Z,929.25
2019-05-09T08:12:50.903Z,929.31
2019-05-09T08:13:50.948Z,929.30
2019-05-09T08:15:07.250Z,929.30
2019-05-09T08:15:51.042Z,929.28
2019-05-09T08:16:51.106Z,929.32
2019-05-09T08:17:51.123Z,929.30
2019-05-09T08:18:51.143Z,929.31
2019-05-09T08:19:51.202Z,929.33
2019-05-09T08:20:51.264Z,929.32
2019-05-09T08:21:51.293Z,929.32
2019-05-09T08:22:57.821Z,929.32
2019-05-09T08:23:51.415Z,929.36
2019-05-09T08:24:51.441Z,929.40
2019-05-09T08:25:51.474Z,929.40
2019-05-09T08:26:51.521Z,929.33
2019-05-09T08:27:51.561Z,929.42
2019-05-09T08:28:51.599Z,929.35
2019-05-09T08:29:51.658Z,929.41
2019-05-09T08:30:51.772Z,929.39
2019-05-09T08:31:51.748Z,929.42
2019-05-09T08:32:51.772Z,929.44
2019-05-09T08:33:51.800Z,929.42
2019-05-09T08:34:51.856Z,929.40
2019-05-09T08:35:52.826Z,929.38
2019-05-09T08:36:51.920Z,929.42
2019-05-09T08:37:51.981Z,929.44
2019-05-09T08:38:52.053Z,929.38
2019-05-09T08:39:52.073Z,929.42
2019-05-09T08:40:52.121Z,929.45
2019-05-09T08:41:52.194Z,929.47
2019-05-09T08:42:52.247Z,929.48
2019-05-09T08:43:52.251Z,929.45
2019-05-09T08:44:52.294Z,929.44
2019-05-09T08:45:52.324Z,929.48
2019-05-09T08:46:52.407Z,929.43
2019-05-09T08:47:52.409Z,929.44
2019-05-09T08:48:52.451Z,929.44
2019-05-09T08:49:52.483Z,929.49
2019-05-09T08:50:52.570Z,929.51
2019-05-09T08:52:09.045Z,929.45
2019-05-09T08:52:52.618Z,929.47
2019-05-09T08:53:52.689Z,929.48
2019-05-09T08:54:52.699Z,929.46
2019-05-09T08:55:52.753Z,929.46
2019-05-09T08:56:52.808Z,929.52
2019-05-09T08:57:52.876Z,929.52
2019-05-09T08:58:52.885Z,929.51
2019-05-09T08:59:52.936Z,929.53
2019-05-09T09:00:52.959Z,929.52
2019-05-09T09:02:11.218Z,929.55
2019-05-09T09:02:53.057Z,929.58
2019-05-09T09:03:53.104Z,929.55
2019-05-09T09:04:53.147Z,929.57
2019-05-09T09:05:53.163Z,929.54
2019-05-09T09:06:53.272Z,929.67
2019-05-09T09:07:53.283Z,929.60
2019-05-09T09:08:53.324Z,929.65
2019-05-09T09:09:53.352Z,929.66
2019-05-09T09:10:53.438Z,929.63
2019-05-09T09:11:53.500Z,929.61
2019-05-09T09:12:53.520Z,929.65
2019-05-09T09:13:53.538Z,929.62
2019-05-09T09:14:53.570Z,929.61
2019-05-09T09:16:11.677Z,929.68
2019-05-09T09:16:53.689Z,929.64
2019-05-09T09:17:53.680Z,929.60
2019-05-09T09:18:53.769Z,929.62
2019-05-09T09:19:53.803Z,929.69
2019-05-09T09:20:53.826Z,929.77
2019-05-09T09:21:56.976Z,929.68
2019-05-09T09:22:53.909Z,929.65
2019-05-09T09:23:53.961Z,929.70
2019-05-09T09:24:54.056Z,929.63
2019-05-09T09:25:54.085Z,929.62
2019-05-09T09:26:54.131Z,929.61
2019-05-09T09:27:54.163Z,929.67
2019-05-09T09:28:54.158Z,929.62
2019-05-09T09:29:54.201Z,929.63
2019-05-09T09:30:54.281Z,929.62
2019-05-09T09:31:54.269Z,929.61
2019-05-09T09:32:54.316Z,929.61
2019-05-09T09:33:54.378Z,929.65
2019-05-09T09:34:54.405Z,929.56
2019-05-09T09:35:54.452Z,929.59
2019-05-09T09:36:54.504Z,929.60
2019-05-09T09:37:54.544Z,929.56
2019-05-09T09:38:54.586Z,929.59
2019-05-09T09:39:54.617Z,929.59
2019-05-09T09:40:54.680Z,929.59
2019-05-09T09:41:54.766Z,929.56
2019-05-09T09:42:54.808Z,929.45
2019-05-09T09:43:54.855Z,929.50
2019-05-09T09:44:54.854Z,929.53
2019-05-09T09:46:07.257Z,929.57
2019-05-09T09:46:54.931Z,929.58
2019-05-09T09:47:54.974Z,929.60
2019-05-09T09:48:55.023Z,929.59
2019-05-09T09:49:55.388Z,929.59
2019-05-09T09:50:55.143Z,929.62
2019-05-09T09:51:55.123Z,929.60
2019-05-09T09:52:55.189Z,929.68
2019-05-09T09:53:58.050Z,929.64
2019-05-09T09:54:58.056Z,929.58
2019-05-09T09:55:55.361Z,929.63
2019-05-09T09:56:55.370Z,929.60
2019-05-09T09:57:57.542Z,929.63
2019-05-09T09:58:57.550Z,929.59
2019-05-09T09:59:55.498Z,929.59
2019-05-09T10:00:58.183Z,929.56
2019-05-09T10:01:55.550Z,929.59
2019-05-09T10:02:55.607Z,929.59
2019-05-09T10:03:57.951Z,929.60
2019-05-09T10:04:55.691Z,929.57
2019-05-09T10:05:57.788Z,929.58
2019-05-09T10:06:58.146Z,929.57
2019-05-09T10:07:58.054Z,929.55
2019-05-09T10:08:57.970Z,929.56
2019-05-09T10:09:58.218Z,929.57
2019-05-09T10:10:58.648Z,929.55
2019-05-09T10:11:58.182Z,929.58
2019-05-09T10:13:02.766Z,929.57
2019-05-09T10:13:58.295Z,929.55
2019-05-09T10:14:57.758Z,929.58
2019-05-09T10:15:58.473Z,929.59
2019-05-09T10:16:58.129Z,929.53
2019-05-09T10:17:58.271Z,929.57
2019-05-09T10:18:57.860Z,929.60
2019-05-09T10:19:56.337Z,929.60
2019-05-09T10:20:58.595Z,929.61
2019-05-09T10:21:57.755Z,929.62
2019-05-09T10:23:03.180Z,929.65
2019-05-09T10:23:57.571Z,929.61
2019-05-09T10:24:58.544Z,929.60
2019-05-09T10:25:58.119Z,929.63
2019-05-09T10:26:56.633Z,929.71
2019-05-09T10:27:56.720Z,929.68
2019-05-09T10:28:56.710Z,929.63
2019-05-09T10:29:57.410Z,929.58
2019-05-09T10:30:57.724Z,929.64
2019-05-09T10:31:57.886Z,929.67
2019-05-09T10:32:58.381Z,929.65
2019-05-09T10:33:58.001Z,929.65
2019-05-09T10:34:58.093Z,929.57
2019-05-09T10:36:03.725Z,929.62
2019-05-09T10:36:58.266Z,929.65
2019-05-09T10:37:58.875Z,929.63
2019-05-09T10:38:58.441Z,929.61
2019-05-09T10:39:58.039Z,929.62
2019-05-09T10:41:01.086Z,929.63
2019-05-09T10:41:57.750Z,929.65
2019-05-09T10:42:58.663Z,929.65
2019-05-09T10:43:57.975Z,929.69
2019-05-09T10:44:58.240Z,929.78
2019-05-09T10:45:57.949Z,929.63
2019-05-09T10:47:01.718Z,929.72
2019-05-09T10:47:57.756Z,929.72
2019-05-09T10:48:58.584Z,929.68
2019-05-09T10:49:58.270Z,929.77
2019-05-09T10:51:03.901Z,929.75
2019-05-09T10:51:58.200Z,929.76
2019-05-09T10:52:58.469Z,929.78
2019-05-09T10:53:58.795Z,929.77
2019-05-09T10:54:58.128Z,929.78
2019-05-09T10:55:57.854Z,929.76
2019-05-09T10:56:58.160Z,929.84
2019-05-09T10:58:02.428Z,929.76
2019-05-09T10:58:58.653Z,929.88
2019-05-09T10:59:58.155Z,929.81
2019-05-09T11:00:58.819Z,929.83
2019-05-09T11:01:58.280Z,929.87
2019-05-09T11:02:58.456Z,929.91
2019-05-09T11:03:59.052Z,929.87
2019-05-09T11:04:58.250Z,929.91
2019-05-09T11:05:58.293Z,929.81
2019-05-09T11:06:58.465Z,929.82
2019-05-09T11:07:58.959Z,929.78
2019-05-09T11:08:58.732Z,929.82
2019-05-09T11:09:58.932Z,929.81
2019-05-09T11:10:58.503Z,929.84
2019-05-09T11:12:01.001Z,929.86
2019-05-09T11:12:58.625Z,929.84
2019-05-09T11:13:59.210Z,929.88
2019-05-09T11:14:59.593Z,929.88
2019-05-09T11:15:58.789Z,929.88
2019-05-09T11:17:07.880Z,929.84
2019-05-09T11:17:58.813Z,929.87
2019-05-09T11:18:58.891Z,929.83
2019-05-09T11:19:59.119Z,929.86
2019-05-09T11:20:58.944Z,929.82
2019-05-09T11:21:58.975Z,929.81
2019-05-09T11:22:59.024Z,929.81
2019-05-09T11:23:59.058Z,929.83
2019-05-09T11:24:59.114Z,929.81
2019-05-09T11:25:59.133Z,929.81
2019-05-09T11:26:59.222Z,929.75
2019-05-09T11:28:08.150Z,929.78
2019-05-09T11:28:59.294Z,929.82
2019-05-09T11:29:59.309Z,929.79
2019-05-09T11:30:59.369Z,929.76
2019-05-09T11:31:59.402Z,929.77
2019-05-09T11:32:59.848Z,929.80
2019-05-09T11:33:59.499Z,929.80
2019-05-09T11:34:59.535Z,929.78
2019-05-09T11:35:59.577Z,929.78
2019-05-09T11:36:59.655Z,929.75
2019-05-09T11:37:59.660Z,929.83
2019-05-09T11:39:00.853Z,929.85
2019-05-09T11:39:59.739Z,929.80
2019-05-09T11:40:59.807Z,929.85
2019-05-09T11:41:59.831Z,929.91
2019-05-09T11:42:59.901Z,929.88
2019-05-09T11:44:00.073Z,929.89
2019-05-09T11:45:00.020Z,929.88
2019-05-09T11:46:00.021Z,929.90
2019-05-09T11:47:00.109Z,929.90
2019-05-09T11:48:00.117Z,929.92
2019-05-09T11:49:00.143Z,929.88
2019-05-09T11:50:00.233Z,929.99
2019-05-09T11:51:00.289Z,929.96
2019-05-09T11:52:00.364Z,929.98
2019-05-09T11:53:00.337Z,929.97
2019-05-09T11:54:00.429Z,929.96
2019-05-09T11:55:00.441Z,929.93
2019-05-09T11:56:00.456Z,930.01
2019-05-09T11:57:00.548Z,930.01
2019-05-09T11:58:00.550Z,930.09
2019-05-09T11:59:00.608Z,930.05
2019-05-09T12:00:00.659Z,930.09
2019-05-09T12:01:02.795Z,930.04
2019-05-09T12:02:00.752Z,930.04
2019-05-09T12:03:00.776Z,929.97
2019-05-09T12:04:00.825Z,930.01
2019-05-09T12:05:00.862Z,930.05
2019-05-09T12:06:00.955Z,930.03
2019-05-09T12:07:00.952Z,929.99
2019-05-09T12:08:01.015Z,930.02
2019-05-09T12:09:01.054Z,929.94
2019-05-09T12:10:01.160Z,929.97
2019-05-09T12:11:01.184Z,929.92
2019-05-09T12:12:01.221Z,929.91
2019-05-09T12:13:01.286Z,929.97
2019-05-09T12:14:01.311Z,929.96
2019-05-09T12:15:01.341Z,929.89
2019-05-09T12:16:01.452Z,929.93
2019-05-09T12:17:01.450Z,929.94
2019-05-09T12:18:07.526Z,929.82
2019-05-09T12:19:01.522Z,929.92
2019-05-09T12:20:12.386Z,929.86
2019-05-09T12:21:01.630Z,929.95
2019-05-09T12:22:01.669Z,929.96
2019-05-09T12:23:01.741Z,929.91
2019-05-09T12:24:01.778Z,929.94
2019-05-09T12:25:01.845Z,929.94
2019-05-09T12:26:01.845Z,929.89
2019-05-09T12:27:03.127Z,930.07
2019-05-09T12:28:01.952Z,930.00
2019-05-09T12:29:02.005Z,930.05